Saturday, August 18, 2018, 3:47 PM EDT
Back to Local

KCDW, Caldwell Essex County Airport

Location: Fairfield, NJ, United States Lat: 40.883
Local Time: 3:47 PM EDT (19:47 GMT) Lon: -74.283
Time Zone: US/Eastern Elev: 173 ft

Show me the last for .
Show Decoded

2018-08-18 14:53 METAR KCDW 181853Z VRB05KT 10SM FEW038 FEW055 30/22 A2978 RMK AO2 SLP087
                 T03000217 $ =
2018-08-18 13:53 METAR KCDW 181753Z 27008KT 230V300 10SM SCT027 29/22 A2980 RMK AO2 SLP094
                 T02940222 10294 20228 58019 $ =
2018-08-18 12:53 METAR KCDW 181653Z VRB05KT 10SM SCT030 BKN080 28/22 A2982 RMK AO2 SLP102
                 T02830222 $ =
2018-08-18 11:53 METAR KCDW 181553Z VRB06KT 10SM BKN015 OVC040 28/23 A2984 RMK AO2 SLP109
                 T02780228 $ =
2018-08-18 10:53 METAR KCDW 181453Z VRB04KT 8SM BKN012 26/23 A2985 RMK AO2 SLP114 T02610233 58003
                 $ =
2018-08-18 09:53 METAR KCDW 181353Z 23004KT 9SM SCT005 24/24 A2986 RMK AO2 SLP115 T02390239 $ =
2018-08-18 08:53 METAR KCDW 181253Z 00000KT 6SM BR SCT006 23/23 A2986 RMK AO2 SLP117 T02280228 $
                 =
2018-08-18 07:53 METAR KCDW 181153Z 00000KT 7SM FEW006 BKN110 23/23 A2986 RMK AO2 SLP117 60010
                 7//// T02280228 10228 20222 58008 $ =
2018-08-18 06:53 METAR KCDW 181053Z 00000KT 7SM CLR 23/23 A2987 RMK AO2 RAB18E27 SLP120 P0000
                 T02280228 $ =
2018-08-18 05:53 METAR KCDW 180953Z AUTO 24003KT 10SM BKN055 OVC080 23/23 A2988 RMK AO2 SLP123
                 T02280228 $ =
2018-08-18 04:53 METAR KCDW 180853Z AUTO 21003KT 9SM FEW045 OVC065 23/23 A2989 RMK AO2 RAB02E44
                 SLP124 P0010 60010 T02280228 56009 $ =
2018-08-18 04:45 METAR KCDW 180845Z AUTO 00000KT 10SM FEW045 BKN070 OVC090 23/23 A2989 RMK AO2
                 RAB02E44 P0010 T02280228 $ =
2018-08-18 04:38 METAR KCDW 180838Z AUTO 00000KT 2 1/2SM -RA BR FEW042 BKN070 OVC090 23/23 A2989
                 RMK AO2 RAB02 P0010 T02280228 $ =
2018-08-18 04:26 METAR KCDW 180826Z AUTO VRB03KT 4SM -RA BR SCT049 BKN070 OVC090 23/23 A2990 RMK
                 AO2 RAB02 P0006 T02280228 $ =
2018-08-18 04:13 METAR KCDW 180813Z AUTO 00000KT 2SM RA BR SCT049 BKN060 OVC070 22/22 A2990 RMK
                 AO2 RAB02 P0005 T02220222 $ =
2018-08-18 03:53 METAR KCDW 180753Z AUTO 00000KT 10SM OVC060 23/23 A2990 RMK AO2 SLP126 T02280228
                 $ =
2018-08-18 02:53 METAR KCDW 180653Z AUTO 00000KT 10SM CLR 22/22 A2990 RMK AO2 SLP127 T02220222 $
                 =
2018-08-18 01:53 METAR KCDW 180553Z AUTO 00000KT 10SM FEW095 22/22 A2992 RMK AO2 SLP133 60089
                 T02220222 10267 20217 56011 $ =
2018-08-18 00:53 METAR KCDW 180453Z AUTO 00000KT 10SM SCT039 OVC050 23/23 A2993 RMK AO2 LTG DSNT
                 E AND SE RAB02E27 TSE30 SLP138 P0003 T02280228 403170217 $ =
2018-08-18 00:36 METAR KCDW 180436Z AUTO 18003KT 10SM VCTS FEW022 BKN041 BKN060 23/22 A2993 RMK
                 AO2 LTG DSNT NE-SE RAB02E27 TSE30 P0003 T02280222 $ =
2018-08-18 00:26 METAR KCDW 180426Z AUTO 00000KT 10SM -TSRA FEW014 BKN041 BKN055 23/23 A2994 RMK
                 AO2 LTG DSNT E-S RAB02 P0003 T02280228 $ =
2018-08-18 00:17 METAR KCDW 180417Z AUTO 22003KT 10SM -TSRA FEW008 BKN028 OVC100 23/23 A2994 RMK
                 AO2 LTG DSNT E-S RAB02 P0003 T02280228 $ =
2018-08-18 00:06 METAR KCDW 180406Z AUTO VRB04KT 2 1/2SM +TSRA BR FEW008 BKN033 OVC050 22/22
                 A2995 RMK AO2 LTG DSNT E-SW RAB02 P0003 T02220222 $ =
2018-08-17 23:53 METAR KCDW 180353Z AUTO 00000KT 10SM TS BKN025 OVC033 22/22 A2995 RMK AO2 LTG
                 DSNT ALQDS RAE16B25E35 TSE32B51 SLP144 P0035 T02220222 $ =
2018-08-17 23:38 METAR KCDW 180338Z AUTO 00000KT 10SM VCTS BKN027 OVC033 22/22 A2995 RMK AO2 LTG
                 DSNT ALQDS RAE16B25E35 TSE32 P0035 T02220222 $ =
2018-08-17 23:16 METAR KCDW 180316Z AUTO 00000KT 10SM TS SCT026 BKN033 OVC040 22/22 A2995 RMK AO2
                 LTG DSNT ALQDS RAE16 P0034 T02170217 $ =
2018-08-17 23:11 METAR KCDW 180311Z AUTO 33003KT 2 1/2SM -TSRA BR FEW011 BKN026 OVC043 22/22
                 A2995 RMK AO2 LTG DSNT NE AND S AND SW P0034 T02170217 $ =
2018-08-17 23:00 METAR KCDW 180300Z AUTO 14003KT 3/4SM +TSRA BR BKN027 BKN050 22/22 A2996 RMK AO2
                 LTG DSNT NE AND E AND SW P0022 T02170217 $ =
2018-08-17 22:53 METAR KCDW 180253Z AUTO 00000KT 1 1/2SM +TSRA BR SCT036 BKN050 BKN110 22/22
                 A2995 RMK AO2 LTG DSNT E-SW TSE0154B0155E15B42 SLP146 P0017 60051 T02170217
                 50009 $ =
2018-08-17 22:51 METAR KCDW 180251Z 00000KT 1 3/4SM +TSRA BR SCT036 SCT050 BKN065 22/22 A2996 RMK
                 AO2 LTG DSNT E-SW TSE0154B0155E15B42 P0015 $ =
2018-08-17 22:48 METAR KCDW 180248Z 00000KT 3SM -TSRA BR FEW039 SCT050 BKN085 22/22 A2997 RMK AO2
                 LTG DSNT E-SW TSE0154B0155E15B42 P0011 $ =
2018-08-17 22:37 METAR KCDW 180237Z 00000KT 9SM VCTS -RA FEW038 BKN110 22/22 A2995 RMK AO2 LTG
                 DSNT E AND SW AND W TSE0154B0155E15 P0008 T02220222 $ =
2018-08-17 22:28 METAR KCDW 180228Z 00000KT 5SM -RA BR SCT042 SCT065 BKN080 22/22 A2995 RMK AO2
                 LTG DSNT ALQDS TSE0154B0155E15 P0007 T02220217 $ =
2018-08-17 22:15 METAR KCDW 180215Z 15003KT 2SM VCTS RA BR BKN041 BKN065 OVC110 22/22 A2996 RMK
                 AO2 VIS 1V3 LTG DSNT ALQDS TSE0154B0155E15 P0005 T02220217 $ =
2018-08-17 21:53 METAR KCDW 180153Z 23003KT 8SM -TSRA SCT045 SCT070 BKN110 22/22 A2997 RMK AO2 PK
                 WND 27029/0108 LTG DSNT ALQDS RAB10 TSB09 SLP152 P0034 T02220217 $ =
2018-08-17 21:42 METAR KCDW 180142Z 24005KT 3SM -TSRA BR BKN043 BKN070 OVC110 22/22 A2997 RMK AO2
                 PK WND 27029/0108 LTG DSNT ALQDS RAB10 TSB09 P0033 T02220217 $ =
2018-08-17 21:22 METAR KCDW 180122Z 24008G23KT 210V280 1 3/4SM +TSRA BR SCT034 SCT043 BKN070
                 23/22 A2999 RMK AO2 PK WND 27029/0108 LTG DSNT ALQDS RAB10 TSB09 P0016 T02280217
                 $ =
2018-08-17 21:15 METAR KCDW 180115Z 28013G29KT 5SM TSRA BR FEW041 SCT070 SCT085 24/22 A2999 RMK
                 AO2 PK WND 27029/0108 LTG DSNT SW-N RAB10 TSB09 PRESRR P0003 T02440222 $ =
2018-08-17 21:06 METAR KCDW 180106Z VRB04KT 9SM VCTS FEW045 27/24 A2994 RMK AO2 LTG DSNT SW-N
                 T02670244 $ =
2018-08-17 20:53 METAR KCDW 180053Z VRB03KT 9SM CLR 26/25 A2993 RMK AO2 LTG DSNT SW-NW RAB14E42
                 SLP137 P0000 T02610250 $ =
2018-08-17 19:53 METAR KCDW 172353Z 30003KT 7SM FEW050 25/25 A2993 RMK AO2 LTG DSNT N-E TSE2258
                 SLP140 6//// T02500250 10317 20239 55002 $ =
2018-08-17 19:31 METAR KCDW 172331Z 00000KT 6SM BR FEW046 24/24 A2993 RMK AO2 LTG DSNT NW-E
                 TSE2258 T02440244 $ =
2018-08-17 19:04 METAR KCDW 172304Z 00000KT 8SM VCTS SCT047 24/24 A2992 RMK AO2 LTG DSNT NE AND E
                 AND W TSE2258 T02440239 $ =
2018-08-17 18:53 METAR KCDW 172253Z 00000KT 8SM TS SCT047 SCT110 25/24 A2991 RMK AO2 PK WND
                 18028/2219 LTG DSNT ALQDS RAE04B20E37 TSE2154B09 SLP134 T02500239 $ =
2018-08-17 18:38 METAR KCDW 172238Z VRB03KT 10SM TS FEW026 BKN050 BKN110 24/23 A2992 RMK AO2 PK
                 WND 18028/2219 LTG DSNT NE RAE04B20E37 TSE2154B09 T02440233 $ =
2018-08-17 18:31 METAR KCDW 172231Z VRB03G19KT 2 1/2SM -TSRA BR FEW025 BKN050 BKN080 24/23 A2992
                 RMK AO2 PK WND 18028/2219 LTG DSNT NW-NE RAE04B20 TSE2154B09 T02440233 PNO $ =
2018-08-17 18:27 METAR KCDW 172227Z 18009G28KT 3/4SM TSRA BR SCT022 BKN050 BKN080 24/23 A2992 RMK
                 AO2 PK WND 18028/2219 LTG DSNT NW-NE RAE04B20 TSE2154B09 T02440233 PNO $ =
2018-08-17 18:20 METAR KCDW 172220Z 19017G28KT 1 1/4SM -TSRA BR FEW017 FEW029 BKN050 26/25 A2993
                 RMK AO2 PK WND 18028/2219 LTG DSNT NW-NE RAE04B20 TSE2154B09 T02610250 PNO $ =
2018-08-17 18:15 METAR KCDW 172215Z 13004KT 8SM TS FEW032 BKN050 28/26 A2992 RMK AO2 LTG DSNT
                 ALQDS RAE04 TSE2154B09 T02780261 PNO $ =
2018-08-17 18:04 METAR KCDW 172204Z 00000KT 8SM VCTS FEW035 BKN049 BKN060 28/25 A2992 RMK AO2 LTG
                 DSNT NE AND S AND SW RAE04 TSE2154 T02780250 PNO $ =
2018-08-17 18:00 METAR KCDW 172200Z 33005KT 1 3/4SM -RA BR FEW033 BKN049 BKN060 27/26 A2992 RMK
                 AO2 LTG DSNT NE AND SW TSE2154 T02720256 PNO $ =
2018-08-17 17:53 METAR KCDW 172153Z COR 34007KT 5SM VCTS FEW033 BKN060 OVC090 28/24 A2992 RMK AO2
                 RAB35 TSB32 SLP135 P0010 T02780244 =
2018-08-17 17:50 METAR KCDW 172150Z 28004KT 1 1/4SM +TSRA SCT047 BKN060 OVC090 29/24 A2993 RMK
                 AO2 RAB35 TSB32 P0007 =
2018-08-17 17:38 METAR KCDW 172138Z 22003KT 7SM -TSRA FEW050 BKN095 OVC120 31/23 A2993 RMK AO2
                 LTG DSNT NW RAB35 TSB32 P0000 T03060228 =
2018-08-17 17:17 METAR KCDW 172117Z VRB06KT 10SM VCTS FEW046 BKN100 32/22 A2994 RMK AO2 LTG DSNT
                 W T03170217 =
2018-08-17 16:53 METAR KCDW 172053Z VRB05KT 10SM FEW048 32/22 A2994 RMK AO2 LTG DSNT W SLP141
                 T03170222 56022 =
2018-08-17 15:53 METAR KCDW 171953Z 21007KT 180V250 10SM FEW090 31/23 A2995 RMK AO2 LTG DSNT NE
                 SLP145 T03110228 =

Support USWX by starting your Amazon purchase here.